createdAt,value
2023-02-02T00:04:23.647Z,97317.13
2023-02-02T00:09:30.068Z,97320.81
2023-02-02T00:14:36.095Z,97330.94
2023-02-02T00:19:40.767Z,97329.69
2023-02-02T00:24:45.192Z,97328.91
2023-02-02T00:29:53.898Z,97327.00
2023-02-02T00:34:58.358Z,97329.00
2023-02-02T00:40:02.667Z,97339.28
2023-02-02T00:45:19.731Z,97329.56
2023-02-02T00:50:24.422Z,97337.53
2023-02-02T00:55:29.278Z,97352.84
2023-02-02T01:00:35.272Z,97352.44
2023-02-02T01:05:40.219Z,97343.69
2023-02-02T01:10:44.653Z,97347.19
2023-02-02T01:15:50.219Z,97351.78
2023-02-02T01:20:59.473Z,97354.47
2023-02-02T01:26:06.897Z,97353.47
2023-02-02T01:31:15.410Z,97354.56
2023-02-02T01:36:23.109Z,97360.75
2023-02-02T01:41:29.007Z,97356.53
2023-02-02T01:46:36.673Z,97361.66
2023-02-02T01:51:47.557Z,97355.84
2023-02-02T01:56:58.689Z,97355.41
2023-02-02T02:02:04.908Z,97344.69
2023-02-02T02:07:09.802Z,97351.97
2023-02-02T02:12:16.496Z,97367.00
2023-02-02T02:17:42.205Z,97382.69
2023-02-02T02:23:40.091Z,97379.97
2023-02-02T02:29:17.673Z,97378.41
2023-02-02T02:34:32.696Z,97386.00
2023-02-02T02:39:44.837Z,97381.38
2023-02-02T02:44:52.015Z,97384.63
2023-02-02T02:49:58.080Z,97374.47
2023-02-02T02:55:05.511Z,97369.03
2023-02-02T03:00:34.719Z,97379.63
2023-02-02T03:05:53.608Z,97377.03
2023-02-02T03:11:02.234Z,97385.88
2023-02-02T03:16:07.295Z,97379.63
2023-02-02T03:21:13.219Z,97387.34
2023-02-02T03:26:17.724Z,97384.63
2023-02-02T03:31:22.390Z,97391.66
2023-02-02T03:36:28.993Z,97394.09
2023-02-02T03:41:33.473Z,97393.44
2023-02-02T03:46:37.947Z,97397.09
2023-02-02T03:51:44.528Z,97397.41
2023-02-02T03:56:49.650Z,97390.50
2023-02-02T04:01:54.234Z,97392.91
2023-02-02T04:07:01.838Z,97390.50
2023-02-02T04:12:07.072Z,97387.25
2023-02-02T04:17:11.706Z,97387.38
2023-02-02T04:22:17.311Z,97370.88
2023-02-02T04:27:21.582Z,97379.28
2023-02-02T04:32:26.203Z,97363.59
2023-02-02T04:37:33.673Z,97364.81
2023-02-02T04:42:38.459Z,97360.34
2023-02-02T04:47:43.114Z,97361.31
2023-02-02T04:52:49.154Z,97349.81
2023-02-02T04:57:54.279Z,97347.41
2023-02-02T05:02:58.539Z,97346.81
2023-02-02T05:08:04.777Z,97344.00
2023-02-02T05:13:09.232Z,97347.41
2023-02-02T05:18:13.860Z,97345.50
2023-02-02T05:23:19.917Z,97335.50
2023-02-02T05:28:24.545Z,97320.72
2023-02-02T05:33:29.263Z,97332.66
2023-02-02T05:38:35.368Z,97328.97
2023-02-02T05:43:39.779Z,97325.22
2023-02-02T05:48:44.004Z,97317.88
2023-02-02T05:53:50.199Z,97312.88
2023-02-02T05:58:54.507Z,97314.34
2023-02-02T06:03:58.988Z,97312.84
2023-02-02T06:09:05.187Z,97318.75
2023-02-02T06:14:09.309Z,97313.22
2023-02-02T06:19:14.122Z,97305.16
2023-02-02T06:24:19.894Z,97307.06
2023-02-02T06:29:24.984Z,97297.84
2023-02-02T06:34:29.607Z,97296.81
2023-02-02T06:39:35.731Z,97302.81
2023-02-02T06:44:40.186Z,97292.31
2023-02-02T06:49:44.850Z,97286.84
2023-02-02T06:54:50.522Z,97291.81
2023-02-02T06:59:55.291Z,97277.81
2023-02-02T07:04:59.900Z,97265.81
2023-02-02T07:10:06.138Z,97265.97
2023-02-02T07:15:12.010Z,97280.44
2023-02-02T07:20:16.586Z,97287.63
2023-02-02T07:25:22.854Z,97272.59
2023-02-02T07:30:29.822Z,97280.03
2023-02-02T07:35:34.611Z,97280.19
2023-02-02T07:40:40.269Z,97291.41
2023-02-02T07:45:44.587Z,97297.47
2023-02-02T07:50:49.077Z,97300.72
2023-02-02T07:55:55.499Z,97304.66
2023-02-02T08:01:03.679Z,97311.78
2023-02-02T08:06:14.412Z,97312.75
2023-02-02T08:11:22.757Z,97317.63
2023-02-02T08:16:29.519Z,97318.41
2023-02-02T08:21:35.200Z,97319.09
2023-02-02T08:26:41.059Z,97334.63
2023-02-02T08:31:46.767Z,97342.72
2023-02-02T08:36:51.222Z,97335.94
2023-02-02T08:41:58.026Z,97337.16
2023-02-02T08:47:02.377Z,97353.19
2023-02-02T08:52:07.433Z,97351.16
2023-02-02T08:57:13.296Z,97356.97
2023-02-02T09:02:18.674Z,97361.03
2023-02-02T09:07:23.293Z,97361.53
2023-02-02T09:12:29.355Z,97363.69
2023-02-02T09:17:33.729Z,97373.94
2023-02-02T09:22:38.178Z,97383.50
2023-02-02T09:27:43.744Z,97390.09
2023-02-02T09:32:51.437Z,97414.44
2023-02-02T09:37:55.648Z,97416.31
2023-02-02T09:43:09.131Z,97429.59
2023-02-02T09:48:27.238Z,97425.59
2023-02-02T09:53:54.802Z,97436.28
2023-02-02T09:59:18.571Z,97446.72
2023-02-02T10:04:32.266Z,97461.50
2023-02-02T10:09:43.609Z,97461.22
2023-02-02T10:14:58.845Z,97468.53
2023-02-02T10:20:15.928Z,97475.00
2023-02-02T10:25:23.857Z,97479.38
2023-02-02T10:30:41.507Z,97488.84
2023-02-02T10:35:56.531Z,97498.19
2023-02-02T10:41:05.491Z,97514.06
2023-02-02T10:46:15.549Z,97527.88
2023-02-02T10:51:27.939Z,97536.25
2023-02-02T10:56:38.780Z,97532.91
2023-02-02T11:01:44.680Z,97530.19
2023-02-02T11:06:52.197Z,97536.25
2023-02-02T11:12:02.265Z,97560.50
2023-02-02T11:17:19.385Z,97555.06
2023-02-02T11:22:32.809Z,97559.38
2023-02-02T11:27:42.550Z,97560.84
2023-02-02T11:32:49.860Z,97574.66
2023-02-02T11:38:02.229Z,97572.47
2023-02-02T11:43:18.081Z,97576.47
2023-02-02T11:48:27.959Z,97586.88
2023-02-02T11:53:35.305Z,97594.34
2023-02-02T11:58:47.876Z,97603.53
2023-02-02T12:03:55.194Z,97621.78
2023-02-02T12:09:02.702Z,97631.94
2023-02-02T12:14:27.336Z,97631.66
2023-02-02T12:19:51.200Z,97652.00
2023-02-02T12:25:02.723Z,97655.66
2023-02-02T12:30:33.142Z,97659.63
2023-02-02T12:36:02.264Z,97665.06
2023-02-02T12:41:31.477Z,97684.75
2023-02-02T12:46:58.172Z,97692.72
2023-02-02T12:52:26.156Z,97700.31
2023-02-02T12:57:47.860Z,97713.09
2023-02-02T13:03:09.305Z,97723.28
2023-02-02T13:08:21.476Z,97728.81
2023-02-02T13:13:32.105Z,97726.06
2023-02-02T13:18:42.540Z,97729.41
2023-02-02T13:23:51.948Z,97743.69
2023-02-02T13:29:03.679Z,97746.44
2023-02-02T13:34:17.952Z,97756.41
2023-02-02T13:39:30.971Z,97765.09
2023-02-02T13:44:41.484Z,97777.63
2023-02-02T13:49:52.046Z,97771.06
2023-02-02T13:55:35.337Z,97794.94
2023-02-02T14:00:42.056Z,97813.06
2023-02-02T14:06:02.354Z,97815.09
2023-02-02T14:11:09.403Z,97824.50
2023-02-02T14:16:24.617Z,97827.75
2023-02-02T14:22:18.688Z,97846.34
2023-02-02T14:27:56.962Z,97852.31
2023-02-02T14:33:47.851Z,97864.78
2023-02-02T14:39:23.561Z,97885.56
2023-02-02T14:44:30.701Z,97885.13
2023-02-02T14:49:36.988Z,97904.94
2023-02-02T14:54:43.329Z,97912.66
2023-02-02T14:59:49.730Z,97931.75
2023-02-02T15:05:16.063Z,97933.53
2023-02-02T15:11:29.799Z,97949.34
2023-02-02T15:16:39.687Z,97955.75
2023-02-02T15:21:46.948Z,97974.03
2023-02-02T15:26:54.539Z,97974.31
2023-02-02T15:32:01.758Z,98001.38
2023-02-02T15:37:09.501Z,98003.41
2023-02-02T15:42:46.201Z,98012.63
2023-02-02T15:47:51.771Z,98025.31
2023-02-02T15:52:57.032Z,98034.53
2023-02-02T15:58:01.823Z,98044.41
2023-02-02T16:03:11.123Z,98063.75
2023-02-02T16:08:22.484Z,98051.16
2023-02-02T16:13:29.581Z,98069.44
2023-02-02T16:18:38.120Z,98081.72
2023-02-02T16:23:42.520Z,98097.69
2023-02-02T16:28:46.858Z,98106.09
2023-02-02T16:33:52.927Z,98121.81
2023-02-02T16:39:01.125Z,98129.41
2023-02-02T16:44:39.628Z,98138.69
2023-02-02T16:49:45.696Z,98150.97
2023-02-02T16:54:55.329Z,98165.84
2023-02-02T17:00:03.702Z,98179.91
2023-02-02T17:05:21.241Z,98186.34
2023-02-02T17:10:31.192Z,98196.75
2023-02-02T17:15:37.370Z,98209.88
2023-02-02T17:20:43.459Z,98227.19
2023-02-02T17:25:48.395Z,98234.81
2023-02-02T17:31:06.851Z,98253.88
2023-02-02T17:36:14.745Z,98254.91
2023-02-02T17:41:19.202Z,98261.34
2023-02-02T17:46:23.524Z,98266.97
2023-02-02T17:51:30.340Z,98277.72
2023-02-02T17:56:34.534Z,98278.56
2023-02-02T18:01:42.511Z,98292.44
2023-02-02T18:06:48.221Z,98299.94
2023-02-02T18:11:52.701Z,98321.91
2023-02-02T18:16:56.966Z,98331.13
2023-02-02T18:22:03.195Z,98335.56
2023-02-02T18:27:08.366Z,98336.03
2023-02-02T18:32:12.834Z,98338.63
2023-02-02T18:37:18.909Z,98347.41
2023-02-02T18:42:24.935Z,98361.28
2023-02-02T18:47:30.634Z,98396.16
2023-02-02T18:52:36.812Z,98407.84
2023-02-02T18:57:41.293Z,98413.09
2023-02-02T19:02:45.741Z,98417.25
2023-02-02T19:07:58.107Z,98431.88
2023-02-02T19:13:15.513Z,98453.84
2023-02-02T19:18:23.035Z,98461.56
2023-02-02T19:23:32.385Z,98458.06
2023-02-02T19:28:36.733Z,98472.13
2023-02-02T19:33:44.444Z,98491.84
2023-02-02T19:38:52.788Z,98486.59
2023-02-02T19:44:02.465Z,98503.72
2023-02-02T19:49:14.405Z,98513.50
2023-02-02T19:54:35.020Z,98526.34
2023-02-02T19:59:39.834Z,98543.88
2023-02-02T20:04:44.581Z,98543.78
2023-02-02T20:09:51.656Z,98546.56
2023-02-02T20:14:57.266Z,98555.09
2023-02-02T20:20:02.092Z,98565.16
2023-02-02T20:25:09.562Z,98569.56
2023-02-02T20:30:22.858Z,98586.09
2023-02-02T20:35:37.336Z,98594.13
2023-02-02T20:40:43.314Z,98600.63
2023-02-02T20:45:48.199Z,98605.13
2023-02-02T20:50:52.955Z,98605.75
2023-02-02T20:56:01.701Z,98622.06
2023-02-02T21:01:06.175Z,98630.09
2023-02-02T21:06:10.597Z,98635.22
2023-02-02T21:11:16.150Z,98646.56
2023-02-02T21:16:20.438Z,98651.91
2023-02-02T21:21:25.290Z,98665.25
2023-02-02T21:26:31.164Z,98666.78
2023-02-02T21:31:37.587Z,98677.59
2023-02-02T21:36:46.262Z,98687.44
2023-02-02T21:41:57.323Z,98690.31
2023-02-02T21:47:02.632Z,98692.16
2023-02-02T21:52:16.815Z,98694.84
2023-02-02T21:57:26.267Z,98696.88
2023-02-02T22:02:41.339Z,98723.50
2023-02-02T22:07:49.316Z,98722.97
2023-02-02T22:12:55.033Z,98732.63
2023-02-02T22:17:59.221Z,98739.38
2023-02-02T22:23:04.305Z,98739.06
2023-02-02T22:28:18.242Z,98741.53
2023-02-02T22:33:26.290Z,98751.69
2023-02-02T22:38:30.942Z,98751.50
2023-02-02T22:43:36.746Z,98757.16
2023-02-02T22:48:41.097Z,98755.31
2023-02-02T22:53:45.295Z,98755.31
2023-02-02T22:58:51.086Z,98757.47
2023-02-02T23:03:55.792Z,98775.75
2023-02-02T23:09:00.566Z,98777.47
2023-02-02T23:14:06.192Z,98788.06
2023-02-02T23:19:10.136Z,98783.97
2023-02-02T23:24:14.612Z,98785.59
2023-02-02T23:29:21.117Z,98784.97
2023-02-02T23:34:25.680Z,98788.25
2023-02-02T23:39:29.917Z,98799.72
2023-02-02T23:44:35.658Z,98809.78
2023-02-02T23:49:40.412Z,98823.03
2023-02-02T23:54:45.504Z,98820.06
2023-02-02T23:59:52.014Z,98831.66
